sensor_id;sensor_type;location;lat;lon;timestamp;temperature;humidity
2465;DHT22;1244;54.326;10.074;2023-06-10T00:02:21;14.30;99.90
2465;DHT22;1244;54.326;10.074;2023-06-10T00:04:48;14.30;99.90
2465;DHT22;1244;54.326;10.074;2023-06-10T00:07:13;14.30;99.90
2465;DHT22;1244;54.326;10.074;2023-06-10T00:09:39;14.20;99.90
2465;DHT22;1244;54.326;10.074;2023-06-10T00:12:05;14.10;99.90
2465;DHT22;1244;54.326;10.074;2023-06-10T00:14:32;14.30;99.90
2465;DHT22;1244;54.326;10.074;2023-06-10T00:16:58;14.20;99.90
2465;DHT22;1244;54.326;10.074;2023-06-10T00:19:24;14.20;99.90
2465;DHT22;1244;54.326;10.074;2023-06-10T00:21:51;14.10;99.90
2465;DHT22;1244;54.326;10.074;2023-06-10T00:24:18;14.10;99.90
2465;DHT22;1244;54.326;10.074;2023-06-10T00:26:43;14.20;99.90
2465;DHT22;1244;54.326;10.074;2023-06-10T00:29:09;14.10;99.90
2465;DHT22;1244;54.326;10.074;2023-06-10T00:31:36;14.00;99.90
2465;DHT22;1244;54.326;10.074;2023-06-10T00:34:02;14.00;99.90
2465;DHT22;1244;54.326;10.074;2023-06-10T00:36:28;13.90;99.90
2465;DHT22;1244;54.326;10.074;2023-06-10T00:38:54;14.00;99.90
2465;DHT22;1244;54.326;10.074;2023-06-10T00:41:19;14.10;99.90
2465;DHT22;1244;54.326;10.074;2023-06-10T00:43:45;14.00;99.90
2465;DHT22;1244;54.326;10.074;2023-06-10T00:46:11;14.10;99.90
2465;DHT22;1244;54.326;10.074;2023-06-10T00:48:38;14.00;99.90
2465;DHT22;1244;54.326;10.074;2023-06-10T00:51:05;14.00;99.90
2465;DHT22;1244;54.326;10.074;2023-06-10T00:53:30;14.00;99.90
2465;DHT22;1244;54.326;10.074;2023-06-10T00:55:57;13.90;99.90
2465;DHT22;1244;54.326;10.074;2023-06-10T00:58:23;14.00;99.90
2465;DHT22;1244;54.326;10.074;2023-06-10T01:00:49;14.00;99.90
2465;DHT22;1244;54.326;10.074;2023-06-10T01:03:15;14.00;99.90
2465;DHT22;1244;54.326;10.074;2023-06-10T01:05:42;13.90;99.90
2465;DHT22;1244;54.326;10.074;2023-06-10T01:08:33;13.90;99.90
2465;DHT22;1244;54.326;10.074;2023-06-10T01:11:01;13.90;99.90
2465;DHT22;1244;54.326;10.074;2023-06-10T01:13:29;13.90;99.90
2465;DHT22;1244;54.326;10.074;2023-06-10T01:15:58;13.90;99.90
2465;DHT22;1244;54.326;10.074;2023-06-10T01:18:30;13.90;99.90
2465;DHT22;1244;54.326;10.074;2023-06-10T01:20:56;13.80;99.90
2465;DHT22;1244;54.326;10.074;2023-06-10T01:23:23;13.80;99.90
2465;DHT22;1244;54.326;10.074;2023-06-10T01:26:09;13.80;99.90
2465;DHT22;1244;54.326;10.074;2023-06-10T01:28:49;13.70;99.90
2465;DHT22;1244;54.326;10.074;2023-06-10T01:33:52;13.80;99.90
2465;DHT22;1244;54.326;10.074;2023-06-10T01:36:19;13.70;99.90
2465;DHT22;1244;54.326;10.074;2023-06-10T01:38:47;13.70;99.90
2465;DHT22;1244;54.326;10.074;2023-06-10T01:41:14;13.80;99.90
2465;DHT22;1244;54.326;10.074;2023-06-10T01:43:43;13.80;99.90
2465;DHT22;1244;54.326;10.074;2023-06-10T01:46:09;13.80;99.90
2465;DHT22;1244;54.326;10.074;2023-06-10T01:48:34;13.80;99.90
2465;DHT22;1244;54.326;10.074;2023-06-10T01:51:00;13.80;99.90
2465;DHT22;1244;54.326;10.074;2023-06-10T01:53:25;13.70;99.90
2465;DHT22;1244;54.326;10.074;2023-06-10T01:55:51;13.70;99.90
2465;DHT22;1244;54.326;10.074;2023-06-10T01:58:16;13.80;99.90
2465;DHT22;1244;54.326;10.074;2023-06-10T02:00:42;13.70;99.90
2465;DHT22;1244;54.326;10.074;2023-06-10T02:03:07;13.70;99.90
2465;DHT22;1244;54.326;10.074;2023-06-10T02:05:33;13.70;99.90
2465;DHT22;1244;54.326;10.074;2023-06-10T02:07:59;13.80;99.90
2465;DHT22;1244;54.326;10.074;2023-06-10T02:10:24;13.80;99.90
2465;DHT22;1244;54.326;10.074;2023-06-10T02:12:50;13.70;99.90
2465;DHT22;1244;54.326;10.074;2023-06-10T02:15:16;13.70;99.90
2465;DHT22;1244;54.326;10.074;2023-06-10T02:17:41;13.60;99.90
2465;DHT22;1244;54.326;10.074;2023-06-10T02:20:07;13.60;99.90
2465;DHT22;1244;54.326;10.074;2023-06-10T02:22:36;13.60;99.90
2465;DHT22;1244;54.326;10.074;2023-06-10T02:25:02;13.70;99.90
2465;DHT22;1244;54.326;10.074;2023-06-10T02:27:29;13.60;99.90
2465;DHT22;1244;54.326;10.074;2023-06-10T02:29:54;13.60;99.90
2465;DHT22;1244;54.326;10.074;2023-06-10T02:32:20;13.60;99.90
2465;DHT22;1244;54.326;10.074;2023-06-10T02:34:45;13.70;99.90
2465;DHT22;1244;54.326;10.074;2023-06-10T02:37:11;13.60;99.90
2465;DHT22;1244;54.326;10.074;2023-06-10T02:39:37;13.50;99.90
2465;DHT22;1244;54.326;10.074;2023-06-10T02:42:02;13.60;99.90
2465;DHT22;1244;54.326;10.074;2023-06-10T02:44:28;13.50;99.90
2465;DHT22;1244;54.326;10.074;2023-06-10T02:46:53;13.50;99.90
2465;DHT22;1244;54.326;10.074;2023-06-10T02:49:19;13.50;99.90
2465;DHT22;1244;54.326;10.074;2023-06-10T02:51:44;13.60;99.90
2465;DHT22;1244;54.326;10.074;2023-06-10T02:54:10;13.50;99.90
2465;DHT22;1244;54.326;10.074;2023-06-10T02:56:35;13.40;99.90
2465;DHT22;1244;54.326;10.074;2023-06-10T02:59:01;13.50;99.90
2465;DHT22;1244;54.326;10.074;2023-06-10T03:01:27;13.60;99.90
2465;DHT22;1244;54.326;10.074;2023-06-10T03:03:52;13.50;99.90
2465;DHT22;1244;54.326;10.074;2023-06-10T03:06:18;13.50;99.90
2465;DHT22;1244;54.326;10.074;2023-06-10T03:08:44;13.60;99.90
2465;DHT22;1244;54.326;10.074;2023-06-10T03:11:11;13.60;99.90
2465;DHT22;1244;54.326;10.074;2023-06-10T03:13:38;13.50;99.90
2465;DHT22;1244;54.326;10.074;2023-06-10T03:16:03;13.50;99.90
2465;DHT22;1244;54.326;10.074;2023-06-10T03:18:30;13.50;99.90
2465;DHT22;1244;54.326;10.074;2023-06-10T03:20:55;13.50;99.90
2465;DHT22;1244;54.326;10.074;2023-06-10T03:23:22;13.40;99.90
2465;DHT22;1244;54.326;10.074;2023-06-10T03:25:48;13.40;99.90
2465;DHT22;1244;54.326;10.074;2023-06-10T03:28:13;13.50;99.90
2465;DHT22;1244;54.326;10.074;2023-06-10T03:30:39;13.50;99.90
2465;DHT22;1244;54.326;10.074;2023-06-10T03:33:04;13.50;99.90
2465;DHT22;1244;54.326;10.074;2023-06-10T03:35:30;13.50;99.90
2465;DHT22;1244;54.326;10.074;2023-06-10T03:37:58;13.50;99.90
2465;DHT22;1244;54.326;10.074;2023-06-10T03:40:23;13.40;99.90
2465;DHT22;1244;54.326;10.074;2023-06-10T03:42:49;13.40;99.90
2465;DHT22;1244;54.326;10.074;2023-06-10T03:45:14;13.40;99.90
2465;DHT22;1244;54.326;10.074;2023-06-10T03:47:40;13.60;99.90
2465;DHT22;1244;54.326;10.074;2023-06-10T03:50:07;13.50;99.90
2465;DHT22;1244;54.326;10.074;2023-06-10T03:52:37;13.40;99.90
2465;DHT22;1244;54.326;10.074;2023-06-10T03:55:03;13.50;99.90
2465;DHT22;1244;54.326;10.074;2023-06-10T03:57:29;13.50;99.90
2465;DHT22;1244;54.326;10.074;2023-06-10T03:59:54;13.60;99.90
2465;DHT22;1244;54.326;10.074;2023-06-10T04:02:20;13.60;99.90
2465;DHT22;1244;54.326;10.074;2023-06-10T04:04:46;13.60;99.90
2465;DHT22;1244;54.326;10.074;2023-06-10T04:07:12;13.70;99.90
2465;DHT22;1244;54.326;10.074;2023-06-10T04:09:37;13.80;99.90
2465;DHT22;1244;54.326;10.074;2023-06-10T04:12:03;13.70;99.90
2465;DHT22;1244;54.326;10.074;2023-06-10T04:14:31;13.80;99.90
2465;DHT22;1244;54.326;10.074;2023-06-10T04:16:56;13.70;99.90
2465;DHT22;1244;54.326;10.074;2023-06-10T04:19:22;13.80;99.90
2465;DHT22;1244;54.326;10.074;2023-06-10T04:21:47;13.90;99.90
2465;DHT22;1244;54.326;10.074;2023-06-10T04:24:13;13.90;99.90
2465;DHT22;1244;54.326;10.074;2023-06-10T04:26:38;13.90;99.90
2465;DHT22;1244;54.326;10.074;2023-06-10T04:29:04;14.00;99.90
2465;DHT22;1244;54.326;10.074;2023-06-10T04:31:30;14.00;99.90
2465;DHT22;1244;54.326;10.074;2023-06-10T04:33:55;13.90;99.90
2465;DHT22;1244;54.326;10.074;2023-06-10T04:36:21;13.90;99.90
2465;DHT22;1244;54.326;10.074;2023-06-10T04:38:46;14.00;99.90
2465;DHT22;1244;54.326;10.074;2023-06-10T04:41:12;14.00;99.90
2465;DHT22;1244;54.326;10.074;2023-06-10T04:43:38;14.10;99.90
2465;DHT22;1244;54.326;10.074;2023-06-10T04:46:04;14.10;99.90
2465;DHT22;1244;54.326;10.074;2023-06-10T04:48:30;14.20;99.90
2465;DHT22;1244;54.326;10.074;2023-06-10T04:50:55;14.10;99.90
2465;DHT22;1244;54.326;10.074;2023-06-10T04:53:22;14.20;99.90
2465;DHT22;1244;54.326;10.074;2023-06-10T04:55:47;14.30;99.90
2465;DHT22;1244;54.326;10.074;2023-06-10T04:58:13;14.40;99.90
2465;DHT22;1244;54.326;10.074;2023-06-10T05:00:39;14.40;99.90
2465;DHT22;1244;54.326;10.074;2023-06-10T05:03:04;14.40;99.90
2465;DHT22;1244;54.326;10.074;2023-06-10T05:05:30;14.50;99.90
2465;DHT22;1244;54.326;10.074;2023-06-10T05:07:55;14.50;99.90
2465;DHT22;1244;54.326;10.074;2023-06-10T05:10:21;14.60;99.90
2465;DHT22;1244;54.326;10.074;2023-06-10T05:12:46;14.70;99.90
2465;DHT22;1244;54.326;10.074;2023-06-10T05:15:12;14.80;99.90
2465;DHT22;1244;54.326;10.074;2023-06-10T05:17:38;14.90;99.90
2465;DHT22;1244;54.326;10.074;2023-06-10T05:20:03;15.00;99.90
2465;DHT22;1244;54.326;10.074;2023-06-10T05:22:29;15.00;99.90
2465;DHT22;1244;54.326;10.074;2023-06-10T05:24:55;15.10;99.90
2465;DHT22;1244;54.326;10.074;2023-06-10T05:27:20;15.30;99.90
2465;DHT22;1244;54.326;10.074;2023-06-10T05:29:47;15.20;99.90
2465;DHT22;1244;54.326;10.074;2023-06-10T05:32:12;15.40;99.90
2465;DHT22;1244;54.326;10.074;2023-06-10T05:34:38;15.40;99.90
2465;DHT22;1244;54.326;10.074;2023-06-10T05:37:04;15.30;99.90
2465;DHT22;1244;54.326;10.074;2023-06-10T05:39:30;15.40;99.90
2465;DHT22;1244;54.326;10.074;2023-06-10T05:41:56;15.30;99.90
2465;DHT22;1244;54.326;10.074;2023-06-10T05:44:24;15.50;99.90
2465;DHT22;1244;54.326;10.074;2023-06-10T05:46:50;15.70;99.90
2465;DHT22;1244;54.326;10.074;2023-06-10T05:49:15;15.90;99.90
2465;DHT22;1244;54.326;10.074;2023-06-10T05:51:41;15.90;99.90
2465;DHT22;1244;54.326;10.074;2023-06-10T05:54:06;15.90;99.90
2465;DHT22;1244;54.326;10.074;2023-06-10T05:56:32;15.90;99.90
2465;DHT22;1244;54.326;10.074;2023-06-10T05:58:57;15.90;99.90
2465;DHT22;1244;54.326;10.074;2023-06-10T06:01:23;15.90;99.90
2465;DHT22;1244;54.326;10.074;2023-06-10T06:03:48;15.90;99.90
2465;DHT22;1244;54.326;10.074;2023-06-10T06:06:14;15.90;99.90
2465;DHT22;1244;54.326;10.074;2023-06-10T06:08:39;16.00;99.90
2465;DHT22;1244;54.326;10.074;2023-06-10T06:11:04;15.90;99.90
2465;DHT22;1244;54.326;10.074;2023-06-10T06:13:30;15.80;99.90
2465;DHT22;1244;54.326;10.074;2023-06-10T06:15:55;15.90;99.90
2465;DHT22;1244;54.326;10.074;2023-06-10T06:18:21;16.10;99.90
2465;DHT22;1244;54.326;10.074;2023-06-10T06:20:46;16.20;99.90
2465;DHT22;1244;54.326;10.074;2023-06-10T06:23:12;16.10;99.90
2465;DHT22;1244;54.326;10.074;2023-06-10T06:25:37;16.00;99.90
2465;DHT22;1244;54.326;10.074;2023-06-10T06:28:06;16.00;99.90
2465;DHT22;1244;54.326;10.074;2023-06-10T06:30:31;16.10;99.90
2465;DHT22;1244;54.326;10.074;2023-06-10T06:32:57;16.20;99.90
2465;DHT22;1244;54.326;10.074;2023-06-10T06:35:22;16.50;99.90
2465;DHT22;1244;54.326;10.074;2023-06-10T06:37:48;16.60;99.90
2465;DHT22;1244;54.326;10.074;2023-06-10T06:40:13;16.50;99.90
2465;DHT22;1244;54.326;10.074;2023-06-10T06:42:39;16.50;99.90
2465;DHT22;1244;54.326;10.074;2023-06-10T06:45:05;16.40;99.90
2465;DHT22;1244;54.326;10.074;2023-06-10T06:47:31;16.40;99.90
2465;DHT22;1244;54.326;10.074;2023-06-10T06:49:56;16.50;99.90
2465;DHT22;1244;54.326;10.074;2023-06-10T06:52:22;16.70;99.90
2465;DHT22;1244;54.326;10.074;2023-06-10T06:54:47;16.80;99.90
2465;DHT22;1244;54.326;10.074;2023-06-10T06:57:13;16.70;99.90
2465;DHT22;1244;54.326;10.074;2023-06-10T06:59:38;16.80;99.90
2465;DHT22;1244;54.326;10.074;2023-06-10T07:02:04;17.10;99.90
2465;DHT22;1244;54.326;10.074;2023-06-10T07:04:30;16.80;99.90
2465;DHT22;1244;54.326;10.074;2023-06-10T07:06:56;17.10;99.90
2465;DHT22;1244;54.326;10.074;2023-06-10T07:09:21;17.10;99.90
2465;DHT22;1244;54.326;10.074;2023-06-10T07:11:47;17.10;99.90
2465;DHT22;1244;54.326;10.074;2023-06-10T07:14:12;17.10;99.90
2465;DHT22;1244;54.326;10.074;2023-06-10T07:16:38;17.10;99.90
2465;DHT22;1244;54.326;10.074;2023-06-10T07:19:03;17.10;99.90
2465;DHT22;1244;54.326;10.074;2023-06-10T07:21:30;17.10;99.90
2465;DHT22;1244;54.326;10.074;2023-06-10T07:23:55;17.10;99.90
2465;DHT22;1244;54.326;10.074;2023-06-10T07:26:22;17.10;99.90
2465;DHT22;1244;54.326;10.074;2023-06-10T07:28:47;17.20;99.90
2465;DHT22;1244;54.326;10.074;2023-06-10T07:31:13;17.40;99.90
2465;DHT22;1244;54.326;10.074;2023-06-10T07:33:39;17.50;99.90
2465;DHT22;1244;54.326;10.074;2023-06-10T07:36:07;17.50;99.90
2465;DHT22;1244;54.326;10.074;2023-06-10T07:38:32;17.60;99.90
2465;DHT22;1244;54.326;10.074;2023-06-10T07:40:58;17.50;99.90
2465;DHT22;1244;54.326;10.074;2023-06-10T07:43:24;17.60;99.90
2465;DHT22;1244;54.326;10.074;2023-06-10T07:45:49;17.50;99.90
2465;DHT22;1244;54.326;10.074;2023-06-10T07:48:16;17.90;99.90
2465;DHT22;1244;54.326;10.074;2023-06-10T07:50:42;18.40;99.90
2465;DHT22;1244;54.326;10.074;2023-06-10T07:53:07;18.40;99.90
2465;DHT22;1244;54.326;10.074;2023-06-10T07:55:33;18.30;99.90
2465;DHT22;1244;54.326;10.074;2023-06-10T07:57:58;18.00;99.90
2465;DHT22;1244;54.326;10.074;2023-06-10T08:00:24;18.10;99.90
2465;DHT22;1244;54.326;10.074;2023-06-10T08:02:50;17.90;99.90
2465;DHT22;1244;54.326;10.074;2023-06-10T08:05:16;17.60;99.90
2465;DHT22;1244;54.326;10.074;2023-06-10T08:07:42;17.60;99.90
2465;DHT22;1244;54.326;10.074;2023-06-10T08:10:08;17.60;99.90
2465;DHT22;1244;54.326;10.074;2023-06-10T08:12:34;17.70;99.90
2465;DHT22;1244;54.326;10.074;2023-06-10T08:15:00;17.70;99.90
2465;DHT22;1244;54.326;10.074;2023-06-10T08:17:26;18.00;99.90
2465;DHT22;1244;54.326;10.074;2023-06-10T08:19:51;18.10;99.90
2465;DHT22;1244;54.326;10.074;2023-06-10T08:22:17;18.20;99.90
2465;DHT22;1244;54.326;10.074;2023-06-10T08:24:43;17.90;99.90
2465;DHT22;1244;54.326;10.074;2023-06-10T08:27:08;17.80;99.90
2465;DHT22;1244;54.326;10.074;2023-06-10T08:29:34;17.90;99.90
2465;DHT22;1244;54.326;10.074;2023-06-10T08:32:00;17.80;99.90
2465;DHT22;1244;54.326;10.074;2023-06-10T08:34:25;18.00;99.90
2465;DHT22;1244;54.326;10.074;2023-06-10T08:36:51;18.10;99.90
2465;DHT22;1244;54.326;10.074;2023-06-10T08:39:19;18.30;99.90
2465;DHT22;1244;54.326;10.074;2023-06-10T08:42:04;18.30;99.90
2465;DHT22;1244;54.326;10.074;2023-06-10T08:44:36;18.30;99.90
2465;DHT22;1244;54.326;10.074;2023-06-10T08:47:08;18.30;99.90
2465;DHT22;1244;54.326;10.074;2023-06-10T08:49:38;18.40;99.90
2465;DHT22;1244;54.326;10.074;2023-06-10T08:52:06;18.40;99.90
2465;DHT22;1244;54.326;10.074;2023-06-10T08:54:34;18.40;99.90
2465;DHT22;1244;54.326;10.074;2023-06-10T08:57:04;18.50;99.90
2465;DHT22;1244;54.326;10.074;2023-06-10T08:59:31;18.90;99.90
2465;DHT22;1244;54.326;10.074;2023-06-10T09:01:56;19.10;99.90
2465;DHT22;1244;54.326;10.074;2023-06-10T09:04:24;19.20;99.90
2465;DHT22;1244;54.326;10.074;2023-06-10T09:06:49;19.70;99.90
2465;DHT22;1244;54.326;10.074;2023-06-10T09:09:16;19.70;99.90
2465;DHT22;1244;54.326;10.074;2023-06-10T09:11:43;19.40;99.90
2465;DHT22;1244;54.326;10.074;2023-06-10T09:14:08;19.40;99.90
2465;DHT22;1244;54.326;10.074;2023-06-10T09:16:34;19.80;99.90
2465;DHT22;1244;54.326;10.074;2023-06-10T09:19:01;20.20;99.90
2465;DHT22;1244;54.326;10.074;2023-06-10T09:21:26;20.40;99.90
2465;DHT22;1244;54.326;10.074;2023-06-10T09:23:52;20.60;99.90
2465;DHT22;1244;54.326;10.074;2023-06-10T09:26:18;21.00;99.90
2465;DHT22;1244;54.326;10.074;2023-06-10T09:28:50;21.30;99.90
2465;DHT22;1244;54.326;10.074;2023-06-10T09:31:16;21.20;99.90
2465;DHT22;1244;54.326;10.074;2023-06-10T09:33:44;20.80;99.90
2465;DHT22;1244;54.326;10.074;2023-06-10T09:36:10;20.70;99.90
2465;DHT22;1244;54.326;10.074;2023-06-10T09:38:36;20.70;99.90
2465;DHT22;1244;54.326;10.074;2023-06-10T09:41:03;20.90;99.90
2465;DHT22;1244;54.326;10.074;2023-06-10T09:43:43;21.20;99.90
2465;DHT22;1244;54.326;10.074;2023-06-10T09:46:18;21.50;99.90
2465;DHT22;1244;54.326;10.074;2023-06-10T09:48:46;21.60;99.90
2465;DHT22;1244;54.326;10.074;2023-06-10T09:51:13;21.80;99.90
2465;DHT22;1244;54.326;10.074;2023-06-10T09:53:39;21.90;99.90
2465;DHT22;1244;54.326;10.074;2023-06-10T09:56:05;21.70;99.90
2465;DHT22;1244;54.326;10.074;2023-06-10T09:58:38;21.40;99.90
2465;DHT22;1244;54.326;10.074;2023-06-10T10:01:12;21.70;99.90
2465;DHT22;1244;54.326;10.074;2023-06-10T10:03:45;21.90;99.90
2465;DHT22;1244;54.326;10.074;2023-06-10T10:06:11;22.20;99.90
2465;DHT22;1244;54.326;10.074;2023-06-10T10:08:37;22.40;99.90
2465;DHT22;1244;54.326;10.074;2023-06-10T10:11:03;22.50;99.90
2465;DHT22;1244;54.326;10.074;2023-06-10T10:13:29;22.50;99.90
2465;DHT22;1244;54.326;10.074;2023-06-10T10:16:00;22.90;99.90
2465;DHT22;1244;54.326;10.074;2023-06-10T10:18:29;22.70;99.90
2465;DHT22;1244;54.326;10.074;2023-06-10T10:20:57;22.80;99.90
2465;DHT22;1244;54.326;10.074;2023-06-10T10:23:33;23.00;99.90
2465;DHT22;1244;54.326;10.074;2023-06-10T10:26:01;23.10;99.90
2465;DHT22;1244;54.326;10.074;2023-06-10T10:28:41;23.20;99.90
2465;DHT22;1244;54.326;10.074;2023-06-10T10:31:09;23.40;99.90
2465;DHT22;1244;54.326;10.074;2023-06-10T10:33:55;23.70;99.90
2465;DHT22;1244;54.326;10.074;2023-06-10T10:36:23;24.00;99.90
2465;DHT22;1244;54.326;10.074;2023-06-10T10:38:48;24.30;99.90
2465;DHT22;1244;54.326;10.074;2023-06-10T10:41:18;23.90;99.90
2465;DHT22;1244;54.326;10.074;2023-06-10T10:43:44;24.00;99.90
2465;DHT22;1244;54.326;10.074;2023-06-10T10:46:13;23.80;99.90
2465;DHT22;1244;54.326;10.074;2023-06-10T10:48:39;23.80;99.90
2465;DHT22;1244;54.326;10.074;2023-06-10T10:51:07;24.00;99.90
2465;DHT22;1244;54.326;10.074;2023-06-10T10:53:32;24.00;99.90
2465;DHT22;1244;54.326;10.074;2023-06-10T10:56:05;24.30;99.90
2465;DHT22;1244;54.326;10.074;2023-06-10T10:58:32;24.20;99.90
2465;DHT22;1244;54.326;10.074;2023-06-10T11:00:58;24.50;99.90
2465;DHT22;1244;54.326;10.074;2023-06-10T11:03:28;25.00;99.90
2465;DHT22;1244;54.326;10.074;2023-06-10T11:05:57;24.90;99.90
2465;DHT22;1244;54.326;10.074;2023-06-10T11:10:57;24.70;99.90
2465;DHT22;1244;54.326;10.074;2023-06-10T11:13:23;24.90;99.90
2465;DHT22;1244;54.326;10.074;2023-06-10T11:15:50;25.40;99.90
2465;DHT22;1244;54.326;10.074;2023-06-10T11:18:24;25.10;99.90
2465;DHT22;1244;54.326;10.074;2023-06-10T11:31:32;25.40;99.90
2465;DHT22;1244;54.326;10.074;2023-06-10T11:34:03;25.30;99.90
2465;DHT22;1244;54.326;10.074;2023-06-10T11:36:30;25.30;99.90
2465;DHT22;1244;54.326;10.074;2023-06-10T11:39:04;25.60;99.90
2465;DHT22;1244;54.326;10.074;2023-06-10T11:41:31;26.40;99.90
2465;DHT22;1244;54.326;10.074;2023-06-10T11:44:01;26.70;99.90
2465;DHT22;1244;54.326;10.074;2023-06-10T11:46:27;26.70;99.90
2465;DHT22;1244;54.326;10.074;2023-06-10T11:48:57;26.90;99.90
2465;DHT22;1244;54.326;10.074;2023-06-10T11:51:31;26.90;99.90
2465;DHT22;1244;54.326;10.074;2023-06-10T11:53:57;26.60;99.90
2465;DHT22;1244;54.326;10.074;2023-06-10T11:56:25;26.80;99.90
2465;DHT22;1244;54.326;10.074;2023-06-10T11:59:04;26.80;99.90
2465;DHT22;1244;54.326;10.074;2023-06-10T12:01:33;26.60;99.90
2465;DHT22;1244;54.326;10.074;2023-06-10T12:04:05;25.90;99.90
2465;DHT22;1244;54.326;10.074;2023-06-10T12:06:44;26.10;99.90
2465;DHT22;1244;54.326;10.074;2023-06-10T12:09:25;26.50;99.90
2465;DHT22;1244;54.326;10.074;2023-06-10T12:11:59;26.00;99.90
2465;DHT22;1244;54.326;10.074;2023-06-10T12:14:51;26.00;99.90
2465;DHT22;1244;54.326;10.074;2023-06-10T12:19:56;25.80;99.90
2465;DHT22;1244;54.326;10.074;2023-06-10T12:22:22;26.20;99.90
2465;DHT22;1244;54.326;10.074;2023-06-10T12:24:59;26.10;99.90
2465;DHT22;1244;54.326;10.074;2023-06-10T12:27:29;26.30;99.90
2465;DHT22;1244;54.326;10.074;2023-06-10T12:29:55;26.70;99.90
2465;DHT22;1244;54.326;10.074;2023-06-10T12:32:21;26.80;99.90
2465;DHT22;1244;54.326;10.074;2023-06-10T12:35:03;26.60;99.90
2465;DHT22;1244;54.326;10.074;2023-06-10T12:37:29;25.80;99.90
2465;DHT22;1244;54.326;10.074;2023-06-10T12:39:55;26.40;99.90
2465;DHT22;1244;54.326;10.074;2023-06-10T12:42:22;25.90;99.90
2465;DHT22;1244;54.326;10.074;2023-06-10T12:44:53;25.60;99.90
2465;DHT22;1244;54.326;10.074;2023-06-10T12:47:19;26.10;99.90
2465;DHT22;1244;54.326;10.074;2023-06-10T12:49:44;26.10;99.90
2465;DHT22;1244;54.326;10.074;2023-06-10T12:52:10;25.70;99.90
2465;DHT22;1244;54.326;10.074;2023-06-10T12:54:35;26.00;99.90
2465;DHT22;1244;54.326;10.074;2023-06-10T12:57:01;26.30;99.90
2465;DHT22;1244;54.326;10.074;2023-06-10T12:59:27;26.20;99.90
2465;DHT22;1244;54.326;10.074;2023-06-10T13:01:54;26.60;99.90
2465;DHT22;1244;54.326;10.074;2023-06-10T13:04:20;26.20;99.90
2465;DHT22;1244;54.326;10.074;2023-06-10T13:06:47;26.20;99.90
2465;DHT22;1244;54.326;10.074;2023-06-10T13:09:13;26.60;99.90
2465;DHT22;1244;54.326;10.074;2023-06-10T13:11:39;26.90;99.90
2465;DHT22;1244;54.326;10.074;2023-06-10T13:14:05;26.40;99.90
2465;DHT22;1244;54.326;10.074;2023-06-10T13:16:31;25.60;99.90
2465;DHT22;1244;54.326;10.074;2023-06-10T13:18:57;25.60;99.90
2465;DHT22;1244;54.326;10.074;2023-06-10T13:21:23;25.50;99.90
2465;DHT22;1244;54.326;10.074;2023-06-10T13:23:49;25.60;99.90
2465;DHT22;1244;54.326;10.074;2023-06-10T13:26:15;25.70;99.90
2465;DHT22;1244;54.326;10.074;2023-06-10T13:28:44;25.50;99.90
2465;DHT22;1244;54.326;10.074;2023-06-10T13:31:09;25.70;99.90
2465;DHT22;1244;54.326;10.074;2023-06-10T13:33:35;25.50;99.90
2465;DHT22;1244;54.326;10.074;2023-06-10T13:36:01;25.40;99.90
2465;DHT22;1244;54.326;10.074;2023-06-10T13:38:26;25.00;99.90
2465;DHT22;1244;54.326;10.074;2023-06-10T13:40:55;25.20;99.90
2465;DHT22;1244;54.326;10.074;2023-06-10T13:43:20;24.70;99.90
2465;DHT22;1244;54.326;10.074;2023-06-10T13:45:46;25.00;99.90
2465;DHT22;1244;54.326;10.074;2023-06-10T13:48:11;24.70;99.90
2465;DHT22;1244;54.326;10.074;2023-06-10T13:50:37;24.50;99.90
2465;DHT22;1244;54.326;10.074;2023-06-10T13:53:03;24.10;99.90
2465;DHT22;1244;54.326;10.074;2023-06-10T13:55:29;24.30;99.90
2465;DHT22;1244;54.326;10.074;2023-06-10T13:57:54;24.50;99.90
2465;DHT22;1244;54.326;10.074;2023-06-10T14:00:20;24.60;99.90
2465;DHT22;1244;54.326;10.074;2023-06-10T14:02:45;24.70;99.90
2465;DHT22;1244;54.326;10.074;2023-06-10T14:05:11;24.30;99.90
2465;DHT22;1244;54.326;10.074;2023-06-10T14:07:37;24.50;99.90
2465;DHT22;1244;54.326;10.074;2023-06-10T14:10:03;24.70;99.90
2465;DHT22;1244;54.326;10.074;2023-06-10T14:12:28;24.30;99.90
2465;DHT22;1244;54.326;10.074;2023-06-10T14:14:54;24.50;99.90
2465;DHT22;1244;54.326;10.074;2023-06-10T14:17:19;24.70;99.90
2465;DHT22;1244;54.326;10.074;2023-06-10T14:19:45;24.70;99.90
2465;DHT22;1244;54.326;10.074;2023-06-10T14:22:10;24.50;99.90
2465;DHT22;1244;54.326;10.074;2023-06-10T14:24:36;24.10;99.90
2465;DHT22;1244;54.326;10.074;2023-06-10T14:27:02;24.10;99.90
2465;DHT22;1244;54.326;10.074;2023-06-10T14:29:28;24.20;99.90
2465;DHT22;1244;54.326;10.074;2023-06-10T14:31:54;23.70;99.90
2465;DHT22;1244;54.326;10.074;2023-06-10T14:34:20;24.30;99.90
2465;DHT22;1244;54.326;10.074;2023-06-10T14:36:45;24.20;99.90
2465;DHT22;1244;54.326;10.074;2023-06-10T14:39:11;24.20;99.90
2465;DHT22;1244;54.326;10.074;2023-06-10T14:41:37;24.10;99.90
2465;DHT22;1244;54.326;10.074;2023-06-10T14:44:02;24.30;99.90
2465;DHT22;1244;54.326;10.074;2023-06-10T14:46:28;24.30;99.90
2465;DHT22;1244;54.326;10.074;2023-06-10T14:48:53;24.10;99.90
2465;DHT22;1244;54.326;10.074;2023-06-10T14:51:19;24.20;99.90
2465;DHT22;1244;54.326;10.074;2023-06-10T14:53:46;23.80;99.90
2465;DHT22;1244;54.326;10.074;2023-06-10T14:56:12;23.70;99.90
2465;DHT22;1244;54.326;10.074;2023-06-10T14:58:37;23.80;99.90
2465;DHT22;1244;54.326;10.074;2023-06-10T15:01:03;24.10;99.90
2465;DHT22;1244;54.326;10.074;2023-06-10T15:03:29;23.90;99.90
2465;DHT22;1244;54.326;10.074;2023-06-10T15:05:54;24.00;99.90
2465;DHT22;1244;54.326;10.074;2023-06-10T15:08:20;23.70;99.90
2465;DHT22;1244;54.326;10.074;2023-06-10T15:10:45;23.60;99.90
2465;DHT22;1244;54.326;10.074;2023-06-10T15:13:13;23.30;99.90
2465;DHT22;1244;54.326;10.074;2023-06-10T15:15:39;23.20;99.90
2465;DHT22;1244;54.326;10.074;2023-06-10T15:18:04;23.50;99.90
2465;DHT22;1244;54.326;10.074;2023-06-10T15:20:30;23.40;99.90
2465;DHT22;1244;54.326;10.074;2023-06-10T15:22:55;23.50;99.90
2465;DHT22;1244;54.326;10.074;2023-06-10T15:25:21;23.00;99.90
2465;DHT22;1244;54.326;10.074;2023-06-10T15:27:46;22.70;99.90
2465;DHT22;1244;54.326;10.074;2023-06-10T15:30:12;22.70;99.90
2465;DHT22;1244;54.326;10.074;2023-06-10T15:32:38;22.50;99.90
2465;DHT22;1244;54.326;10.074;2023-06-10T15:35:03;22.60;99.90
2465;DHT22;1244;54.326;10.074;2023-06-10T15:37:29;22.20;99.90
2465;DHT22;1244;54.326;10.074;2023-06-10T15:39:55;22.00;99.90
2465;DHT22;1244;54.326;10.074;2023-06-10T15:42:20;22.20;99.90
2465;DHT22;1244;54.326;10.074;2023-06-10T15:44:46;22.40;99.90
2465;DHT22;1244;54.326;10.074;2023-06-10T15:47:11;22.10;99.90
2465;DHT22;1244;54.326;10.074;2023-06-10T15:49:37;22.00;99.90
2465;DHT22;1244;54.326;10.074;2023-06-10T15:52:03;21.80;99.90
2465;DHT22;1244;54.326;10.074;2023-06-10T15:54:28;21.60;99.90
2465;DHT22;1244;54.326;10.074;2023-06-10T15:56:54;21.80;99.90
2465;DHT22;1244;54.326;10.074;2023-06-10T15:59:19;21.60;99.90
2465;DHT22;1244;54.326;10.074;2023-06-10T16:01:45;21.70;99.90